Time;durP1;ratioP1;P1;durP2;ratioP2;P2;SDS_P1;SDS_P2;PMS_P1;PMS_P2;Temp;Humidity;BMP_temperature;BMP_pressure;BME280_temperature;BME280_humidity;BME280_pressure;Samples;Min_cycle;Max_cycle;Signal;HPM_P1;HPM_P2
2022/03/30 00:00:57;;;;;;;8.55;2.38;;;3.10;99.90;;;;;;4971871;28;20034;-48
2022/03/30 00:03:23;;;;;;;6.70;2.08;;;3.10;99.90;;;;;;4971512;28;20077;-45
2022/03/30 00:05:49;;;;;;;6.53;2.00;;;3.10;99.90;;;;;;4970392;28;20035;-46
2022/03/30 00:08:14;;;;;;;4.43;1.98;;;3.10;99.90;;;;;;4971824;28;20038;-47
2022/03/30 00:10:40;;;;;;;4.95;1.77;;;3.10;99.90;;;;;;4971759;28;20026;-46
2022/03/30 00:13:06;;;;;;;9.45;2.00;;;3.00;99.90;;;;;;4971251;28;20062;-46
2022/03/30 00:15:31;;;;;;;8.23;2.40;;;3.00;99.90;;;;;;4986947;28;20401;-46
2022/03/30 00:18:00;;;;;;;6.05;1.90;;;3.00;99.90;;;;;;4972009;28;20018;-48
2022/03/30 00:20:26;;;;;;;7.70;2.47;;;3.00;99.90;;;;;;4971381;28;20512;-49
2022/03/30 00:22:51;;;;;;;6.75;2.10;;;3.00;99.90;;;;;;4971063;28;20026;-48
2022/03/30 00:25:17;;;;;;;5.30;1.90;;;3.00;99.90;;;;;;4971954;28;20386;-47
2022/03/30 00:27:46;;;;;;;4.70;1.65;;;3.00;99.90;;;;;;4970925;28;20034;-49
2022/03/30 00:30:13;;;;;;;6.15;1.77;;;3.00;99.90;;;;;;4971745;28;20041;-48
2022/03/30 00:32:39;;;;;;;7.20;2.20;;;2.90;99.90;;;;;;4970365;28;20073;-48
2022/03/30 00:35:06;;;;;;;6.63;1.83;;;2.90;99.90;;;;;;4971901;28;20030;-48
2022/03/30 00:37:32;;;;;;;4.53;2.17;;;2.90;99.90;;;;;;4970874;28;20081;-48
2022/03/30 00:40:29;;;;;;;10.13;3.15;;;2.90;99.90;;;;;;4971680;28;20031;-48
2022/03/30 00:42:54;;;;;;;6.97;2.25;;;3.00;99.90;;;;;;4967510;28;20034;-49
2022/03/30 00:45:23;;;;;;;7.75;2.47;;;2.90;99.90;;;;;;4970929;28;20093;-51
2022/03/30 00:47:49;;;;;;;3.90;1.70;;;2.90;99.90;;;;;;4970658;28;20062;-48
2022/03/30 00:50:17;;;;;;;8.52;2.50;;;2.90;99.90;;;;;;4969517;28;20050;-49
2022/03/30 00:52:44;;;;;;;7.07;2.75;;;2.90;99.90;;;;;;4970675;28;20082;-48
2022/03/30 00:55:10;;;;;;;6.50;1.90;;;3.00;99.90;;;;;;4969701;28;20422;-49
2022/03/30 00:57:37;;;;;;;7.07;1.70;;;2.90;99.90;;;;;;4969860;28;20027;-49
2022/03/30 01:00:05;;;;;;;7.72;2.13;;;2.90;99.90;;;;;;4968862;28;20501;-51
2022/03/30 01:02:31;;;;;;;5.93;2.10;;;3.00;99.90;;;;;;4969036;28;20042;-50
2022/03/30 01:04:57;;;;;;;4.43;1.75;;;3.00;99.90;;;;;;4970299;28;20042;-49
2022/03/30 01:07:25;;;;;;;8.00;2.00;;;3.00;99.90;;;;;;4970208;28;20497;-49
2022/03/30 01:09:50;;;;;;;5.38;2.15;;;3.00;99.90;;;;;;4970562;28;20034;-47
2022/03/30 01:12:17;;;;;;;7.68;1.92;;;3.00;99.90;;;;;;4970526;28;20183;-51
2022/03/30 01:14:42;;;;;;;6.30;2.22;;;3.00;99.90;;;;;;4970126;28;20022;-46
2022/03/30 01:17:08;;;;;;;3.70;1.90;;;3.00;99.90;;;;;;4970382;28;20035;-50
2022/03/30 01:19:34;;;;;;;3.65;1.85;;;3.00;99.90;;;;;;4970436;28;20093;-48
2022/03/30 01:22:00;;;;;;;5.85;2.10;;;3.00;99.90;;;;;;4968623;28;20039;-48
2022/03/30 01:24:26;;;;;;;4.53;2.28;;;3.00;99.90;;;;;;4970050;28;20023;-47
2022/03/30 01:26:52;;;;;;;4.18;1.73;;;3.00;99.90;;;;;;4970240;28;20495;-49
2022/03/30 01:34:48;;;;;;;6.07;1.80;;;3.00;99.90;;;;;;4969546;28;20034;-48
2022/03/30 01:37:15;;;;;;;9.13;2.50;;;3.00;99.90;;;;;;4970068;28;20038;-48
2022/03/30 01:39:42;;;;;;;5.35;1.60;;;3.00;99.90;;;;;;4970409;28;20408;-49
2022/03/30 01:42:08;;;;;;;4.25;1.90;;;3.00;99.90;;;;;;4970214;28;20679;-47
2022/03/30 01:44:36;;;;;;;4.10;2.20;;;3.00;99.90;;;;;;4969056;28;20035;-47
2022/03/30 01:47:02;;;;;;;2.50;1.40;;;2.90;99.90;;;;;;4970255;28;20113;-49
2022/03/30 01:49:27;;;;;;;3.63;1.67;;;3.00;99.90;;;;;;4970225;28;20023;-50
2022/03/30 01:51:55;;;;;;;4.45;2.28;;;3.00;99.90;;;;;;4969989;28;20042;-48
2022/03/30 01:54:23;;;;;;;3.40;1.83;;;3.00;99.90;;;;;;4970386;28;20027;-51
2022/03/30 01:56:50;;;;;;;7.82;2.22;;;3.00;99.90;;;;;;4970442;28;20170;-48
2022/03/30 01:59:17;;;;;;;6.90;1.80;;;3.00;99.90;;;;;;4969775;28;20577;-49
2022/03/30 02:01:43;;;;;;;3.83;1.63;;;3.00;99.90;;;;;;4970007;28;20042;-47
2022/03/30 02:04:09;;;;;;;4.45;1.58;;;2.90;99.90;;;;;;4969280;28;20210;-48
2022/03/30 02:06:36;;;;;;;3.70;1.50;;;3.00;99.90;;;;;;4967039;28;20026;-48
2022/03/30 02:09:01;;;;;;;5.60;1.88;;;3.00;99.90;;;;;;4969572;28;20596;-48
2022/03/30 02:11:27;;;;;;;6.05;2.17;;;2.90;99.90;;;;;;4969694;28;20054;-49
2022/03/30 02:13:53;;;;;;;4.95;1.50;;;3.00;99.90;;;;;;4969367;28;20031;-46
2022/03/30 02:16:19;;;;;;;7.50;2.20;;;3.00;99.90;;;;;;4969814;28;20126;-52
2022/03/30 02:18:45;;;;;;;8.02;1.65;;;2.90;99.90;;;;;;4969724;28;20026;-48
2022/03/30 02:21:11;;;;;;;2.78;1.38;;;3.00;99.90;;;;;;4969541;28;20030;-49
2022/03/30 02:23:37;;;;;;;7.15;2.00;;;2.90;99.90;;;;;;4969645;28;20504;-47
2022/03/30 02:26:03;;;;;;;3.53;1.83;;;3.00;99.90;;;;;;4969891;28;20576;-48
2022/03/30 02:28:28;;;;;;;4.93;1.52;;;3.00;99.90;;;;;;4969951;28;20118;-50
2022/03/30 02:30:55;;;;;;;3.75;2.03;;;3.00;99.90;;;;;;4969619;28;20093;-51
2022/03/30 02:33:20;;;;;;;10.32;2.00;;;3.00;99.90;;;;;;4969430;28;20027;-47
2022/03/30 02:35:46;;;;;;;3.95;2.10;;;3.00;99.90;;;;;;4969827;28;20658;-50
2022/03/30 02:38:11;;;;;;;4.35;1.90;;;3.00;99.90;;;;;;4969721;28;20118;-49
2022/03/30 02:40:37;;;;;;;5.35;1.80;;;3.00;99.90;;;;;;4969683;28;20620;-48
2022/03/30 02:43:02;;;;;;;3.38;1.50;;;3.10;99.90;;;;;;4969106;28;20033;-47
2022/03/30 02:45:29;;;;;;;8.20;1.60;;;3.10;99.90;;;;;;4970193;28;20608;-46
2022/03/30 02:50:39;;;;;;;4.22;1.60;;;3.10;99.90;;;;;;4971087;28;20650;-47
2022/03/30 02:53:04;;;;;;;6.97;2.08;;;3.10;99.90;;;;;;4972638;28;20023;-48
2022/03/30 02:55:30;;;;;;;5.68;1.77;;;3.10;99.90;;;;;;4972839;28;20022;-47
2022/03/30 02:57:55;;;;;;;8.93;2.20;;;3.10;99.90;;;;;;4972789;28;20561;-47
2022/03/30 03:00:21;;;;;;;6.82;2.00;;;3.10;99.90;;;;;;4973593;28;20027;-49
2022/03/30 03:02:47;;;;;;;5.85;1.52;;;3.10;99.90;;;;;;4972605;28;20019;-48
2022/03/30 03:05:12;;;;;;;3.80;1.67;;;3.10;99.90;;;;;;4973514;28;20039;-48
2022/03/30 03:07:38;;;;;;;4.05;1.70;;;3.10;99.90;;;;;;4972668;28;20027;-45
2022/03/30 03:10:04;;;;;;;5.68;2.00;;;3.10;99.90;;;;;;4972905;28;20107;-46
2022/03/30 03:12:30;;;;;;;5.95;1.58;;;3.10;99.90;;;;;;4972816;28;20540;-48
2022/03/30 03:14:55;;;;;;;7.38;1.83;;;3.10;99.90;;;;;;4973007;28;20026;-47
2022/03/30 03:17:21;;;;;;;5.38;1.83;;;3.10;99.90;;;;;;4972334;28;20035;-49
2022/03/30 03:19:46;;;;;;;5.55;1.88;;;3.10;99.90;;;;;;4972604;28;20039;-46
2022/03/30 03:22:12;;;;;;;7.28;2.00;;;3.10;99.90;;;;;;4972220;28;20034;-47
2022/03/30 03:24:37;;;;;;;5.60;1.30;;;3.10;99.90;;;;;;4972376;28;20035;-46
2022/03/30 03:27:03;;;;;;;5.75;1.88;;;3.10;99.90;;;;;;4971150;28;20054;-49
2022/03/30 03:29:29;;;;;;;4.63;1.63;;;3.10;99.90;;;;;;4972372;28;20134;-43
2022/03/30 03:31:55;;;;;;;3.33;1.83;;;3.10;99.90;;;;;;4972141;28;20382;-46
2022/03/30 03:34:21;;;;;;;4.20;1.88;;;3.10;99.90;;;;;;4971703;28;20493;-47
2022/03/30 03:36:46;;;;;;;5.32;1.58;;;3.10;99.90;;;;;;4972371;28;20041;-49
2022/03/30 03:39:12;;;;;;;4.20;1.27;;;3.10;99.90;;;;;;4972481;28;20089;-47
2022/03/30 03:41:38;;;;;;;2.45;1.38;;;3.10;99.90;;;;;;4972210;28;20106;-47
2022/03/30 03:44:03;;;;;;;5.00;1.60;;;3.10;99.90;;;;;;4972314;28;20035;-48
2022/03/30 03:46:29;;;;;;;4.63;1.20;;;3.10;99.90;;;;;;4971928;28;20038;-48
2022/03/30 03:48:55;;;;;;;3.50;0.85;;;3.10;99.90;;;;;;4972532;28;20691;-46
2022/03/30 03:51:21;;;;;;;2.80;1.35;;;3.10;99.90;;;;;;4972060;28;20023;-47
2022/03/30 03:53:47;;;;;;;6.55;1.55;;;3.10;99.90;;;;;;4971500;28;20517;-46
2022/03/30 03:56:12;;;;;;;4.93;1.30;;;3.00;99.90;;;;;;4972133;28;20484;-48
2022/03/30 03:58:38;;;;;;;4.53;1.30;;;3.00;99.90;;;;;;4971803;28;20027;-50
2022/03/30 04:01:03;;;;;;;2.75;1.20;;;3.00;99.90;;;;;;4971386;28;20026;-49
2022/03/30 04:03:29;;;;;;;5.10;2.00;;;3.00;99.90;;;;;;4971153;28;20015;-50
2022/03/30 04:05:55;;;;;;;5.22;1.40;;;3.00;99.90;;;;;;4972152;28;20618;-49
2022/03/30 04:08:20;;;;;;;3.38;1.55;;;3.00;99.90;;;;;;4971395;28;20691;-53
2022/03/30 04:10:47;;;;;;;5.75;1.25;;;3.00;99.90;;;;;;4971422;28;20481;-47
2022/03/30 04:13:12;;;;;;;2.95;0.93;;;3.00;99.90;;;;;;4970885;28;20027;-50
2022/03/30 04:15:38;;;;;;;5.35;1.63;;;2.90;99.90;;;;;;4970518;28;20033;-50
2022/03/30 04:18:04;;;;;;;2.35;1.02;;;2.90;99.90;;;;;;4971114;28;20058;-48
2022/03/30 04:20:31;;;;;;;3.85;0.90;;;2.90;99.90;;;;;;4970244;28;20491;-49
2022/03/30 04:22:57;;;;;;;2.58;1.35;;;2.90;99.90;;;;;;4970963;28;20077;-46
2022/03/30 04:25:23;;;;;;;7.45;1.50;;;2.90;99.90;;;;;;4971782;28;20070;-48
2022/03/30 04:27:51;;;;;;;2.90;0.82;;;2.90;99.90;;;;;;4971524;28;20027;-47
2022/03/30 04:30:18;;;;;;;2.78;0.93;;;2.80;99.90;;;;;;4971341;28;20033;-48
2022/03/30 04:32:44;;;;;;;5.10;1.33;;;2.80;99.90;;;;;;4970482;28;20030;-48
2022/03/30 04:35:11;;;;;;;4.75;0.95;;;2.80;99.90;;;;;;4970976;28;20097;-49
2022/03/30 04:37:38;;;;;;;2.45;1.13;;;2.80;99.90;;;;;;4971326;28;20031;-51
2022/03/30 04:40:04;;;;;;;4.53;1.60;;;2.80;99.90;;;;;;4969778;28;20113;-49
2022/03/30 04:42:30;;;;;;;4.32;1.25;;;2.80;99.90;;;;;;4970536;28;20501;-48
2022/03/30 04:44:55;;;;;;;4.53;1.13;;;2.70;99.90;;;;;;4969902;28;20061;-50
2022/03/30 04:47:21;;;;;;;4.28;1.17;;;2.80;99.90;;;;;;4970618;28;20512;-50
2022/03/30 04:49:47;;;;;;;3.03;1.23;;;2.80;99.90;;;;;;4970896;28;20027;-47
2022/03/30 04:52:13;;;;;;;7.03;1.55;;;2.80;99.90;;;;;;4971232;28;20118;-49
2022/03/30 04:54:38;;;;;;;1.83;0.90;;;2.80;99.90;;;;;;4971240;28;20512;-49
2022/03/30 04:57:04;;;;;;;3.75;1.20;;;2.80;99.90;;;;;;4970798;28;20493;-47
2022/03/30 04:59:30;;;;;;;4.55;1.67;;;2.80;99.90;;;;;;4970578;28;20397;-47
2022/03/30 05:01:55;;;;;;;2.95;1.25;;;2.80;99.90;;;;;;4970134;28;20031;-49
2022/03/30 05:04:21;;;;;;;8.30;1.63;;;2.80;99.90;;;;;;4970148;28;20034;-50
2022/03/30 05:06:46;;;;;;;9.30;2.63;;;2.80;99.90;;;;;;4970895;28;20042;-47
2022/03/30 05:09:12;;;;;;;5.30;2.20;;;2.80;99.90;;;;;;4970029;28;20133;-48
2022/03/30 05:11:39;;;;;;;5.63;1.30;;;2.70;99.90;;;;;;4970573;28;20433;-49
2022/03/30 05:14:05;;;;;;;5.70;1.60;;;2.70;99.90;;;;;;4970146;28;20038;-49
2022/03/30 05:16:30;;;;;;;8.73;2.20;;;2.70;99.90;;;;;;4970432;28;20096;-49
2022/03/30 05:18:56;;;;;;;4.68;1.38;;;2.60;99.90;;;;;;4970635;28;20511;-50
2022/03/30 05:21:22;;;;;;;5.45;1.88;;;2.60;99.90;;;;;;4970255;28;20127;-50
2022/03/30 05:23:48;;;;;;;2.92;1.70;;;2.60;99.90;;;;;;5007555;23;20145;-49
2022/03/30 05:26:13;;;;;;;8.43;2.00;;;2.60;99.90;;;;;;4990649;28;20026;-47
2022/03/30 05:28:40;;;;;;;5.82;1.35;;;2.50;99.90;;;;;;4993130;28;20401;-48
2022/03/30 05:31:06;;;;;;;10.25;2.25;;;2.50;99.90;;;;;;5009574;28;20026;-49
2022/03/30 05:33:32;;;;;;;6.40;1.88;;;2.40;99.90;;;;;;5009017;28;20041;-49
2022/03/30 05:35:58;;;;;;;6.50;2.17;;;2.40;99.90;;;;;;5009788;28;20033;-48
2022/03/30 05:38:24;;;;;;;7.22;1.95;;;2.40;99.90;;;;;;5008969;28;20045;-47
2022/03/30 05:40:50;;;;;;;6.57;2.45;;;2.50;99.90;;;;;;4990250;28;20038;-49
2022/03/30 05:43:17;;;;;;;6.07;1.88;;;2.50;99.90;;;;;;4989745;28;20399;-47
2022/03/30 05:45:43;;;;;;;5.10;2.40;;;2.50;99.90;;;;;;4990473;28;20112;-48
2022/03/30 05:48:09;;;;;;;3.92;2.25;;;2.50;99.90;;;;;;4990036;28;20042;-50
2022/03/30 05:50:35;;;;;;;9.05;2.85;;;2.60;99.90;;;;;;4990852;28;20030;-48
2022/03/30 05:53:00;;;;;;;4.53;2.13;;;2.50;99.90;;;;;;4990917;28;20034;-48
2022/03/30 05:55:26;;;;;;;7.47;2.35;;;2.60;99.90;;;;;;5021938;28;20019;-49
2022/03/30 05:57:52;;;;;;;3.95;2.30;;;2.60;99.90;;;;;;4999466;28;20092;-49
2022/03/30 06:00:17;;;;;;;7.55;2.75;;;2.60;99.90;;;;;;5000093;28;20040;-48
2022/03/30 06:02:43;;;;;;;6.00;3.15;;;2.60;99.90;;;;;;5007510;28;20026;-48
2022/03/30 06:05:09;;;;;;;6.38;3.28;;;2.60;99.90;;;;;;5009265;28;20095;-48
2022/03/30 06:07:35;;;;;;;5.65;2.72;;;2.60;99.90;;;;;;4993673;28;20014;-50
2022/03/30 06:10:00;;;;;;;8.43;2.50;;;2.60;99.90;;;;;;5005257;28;20432;-49
2022/03/30 06:12:26;;;;;;;5.57;2.72;;;2.60;99.90;;;;;;4993726;28;20052;-49
2022/03/30 06:14:52;;;;;;;7.53;3.20;;;2.60;99.90;;;;;;5009804;28;20030;-49
2022/03/30 06:17:19;;;;;;;6.55;2.75;;;2.60;99.90;;;;;;5009195;28;20033;-50
2022/03/30 06:19:51;;;;;;;5.88;2.42;;;2.60;99.90;;;;;;5015543;28;20506;-50
2022/03/30 06:22:17;;;;;;;5.03;2.67;;;2.60;99.90;;;;;;4997508;28;20041;-50
2022/03/30 06:24:43;;;;;;;7.82;3.13;;;2.60;99.90;;;;;;5008332;28;20037;-48
2022/03/30 06:27:10;;;;;;;4.90;2.72;;;2.60;99.90;;;;;;5005383;28;20116;-48
2022/03/30 06:29:36;;;;;;;8.25;3.00;;;2.60;99.90;;;;;;4993500;28;20022;-49
2022/03/30 06:32:03;;;;;;;6.55;2.88;;;2.60;99.90;;;;;;5002739;28;20410;-50
2022/03/30 06:34:29;;;;;;;10.90;3.22;;;2.60;99.90;;;;;;4993059;28;20607;-52
2022/03/30 06:36:54;;;;;;;6.50;3.35;;;2.60;99.90;;;;;;4995686;28;20042;-48
2022/03/30 06:39:20;;;;;;;6.82;2.75;;;2.60;99.90;;;;;;4998670;28;20058;-51
2022/03/30 06:41:46;;;;;;;6.32;2.53;;;2.60;99.90;;;;;;4994560;28;20030;-49
2022/03/30 06:44:11;;;;;;;5.65;2.72;;;2.70;99.90;;;;;;4992765;28;20026;-48
2022/03/30 06:46:40;;;;;;;5.97;2.30;;;2.60;99.90;;;;;;4992973;28;20105;-51
2022/03/30 06:49:07;;;;;;;4.53;2.95;;;2.60;99.90;;;;;;4998028;28;20053;-53
2022/03/30 06:51:34;;;;;;;11.98;3.35;;;2.70;99.90;;;;;;5012622;28;20025;-49
2022/03/30 06:53:59;;;;;;;2.53;2.10;;;2.70;99.90;;;;;;5012478;28;20495;-52
2022/03/30 06:56:25;;;;;;;5.40;2.92;;;2.70;99.90;;;;;;5012562;28;20057;-50
2022/03/30 06:58:51;;;;;;;3.35;2.05;;;2.80;99.90;;;;;;5012568;28;20045;-48
2022/03/30 07:01:17;;;;;;;9.10;2.70;;;2.80;99.90;;;;;;5012666;28;20097;-51
2022/03/30 07:03:43;;;;;;;5.60;2.38;;;2.90;99.90;;;;;;5012507;28;20087;-50
2022/03/30 07:06:08;;;;;;;5.00;2.22;;;3.00;99.90;;;;;;5012527;28;20037;-50
2022/03/30 07:11:18;;;;;;;5.72;2.38;;;3.00;99.90;;;;;;5012361;28;20041;-50
2022/03/30 07:13:44;;;;;;;7.90;2.17;;;3.10;99.90;;;;;;5011837;28;20030;-50
2022/03/30 07:16:10;;;;;;;7.00;2.65;;;3.10;99.90;;;;;;5012189;28;20033;-48
2022/03/30 07:18:36;;;;;;;8.85;2.33;;;3.20;99.90;;;;;;5012135;28;20045;-51
2022/03/30 07:21:02;;;;;;;5.55;2.35;;;3.10;99.90;;;;;;5012011;28;20597;-50
2022/03/30 07:23:27;;;;;;;6.25;2.28;;;3.20;99.90;;;;;;5010668;28;20030;-50
2022/03/30 07:25:53;;;;;;;4.85;1.73;;;3.20;99.90;;;;;;4998363;28;20042;-49
2022/03/30 07:28:19;;;;;;;7.53;2.25;;;3.30;99.90;;;;;;5023986;28;20409;-50
2022/03/30 07:30:45;;;;;;;5.80;2.13;;;3.30;99.90;;;;;;5006863;28;20030;-49
2022/03/30 07:33:12;;;;;;;8.50;2.10;;;3.40;99.90;;;;;;5011084;28;20049;-51
2022/03/30 07:35:39;;;;;;;8.10;2.35;;;3.40;99.90;;;;;;5011191;28;20117;-50
2022/03/30 07:38:05;;;;;;;5.15;1.92;;;3.40;99.90;;;;;;5012037;28;20076;-49
2022/03/30 07:40:32;;;;;;;3.15;1.80;;;3.40;99.90;;;;;;4996373;28;20034;-49
2022/03/30 07:42:58;;;;;;;5.35;1.95;;;3.50;99.90;;;;;;4991976;28;20027;-50
2022/03/30 07:45:25;;;;;;;5.13;1.98;;;3.60;99.90;;;;;;4992064;28;20061;-50
2022/03/30 07:47:51;;;;;;;4.28;1.98;;;3.60;99.90;;;;;;4992047;28;20057;-47
2022/03/30 07:50:17;;;;;;;3.58;1.80;;;3.70;99.90;;;;;;5007621;28;20058;-49
2022/03/30 07:52:43;;;;;;;6.55;2.88;;;3.70;99.90;;;;;;5011196;28;20096;-51
2022/03/30 07:55:11;;;;;;;5.57;2.20;;;3.80;99.90;;;;;;5001228;28;20484;-52
2022/03/30 07:57:39;;;;;;;4.28;1.77;;;3.80;99.90;;;;;;5011702;28;20034;-50
2022/03/30 08:00:07;;;;;;;6.75;2.10;;;3.80;99.90;;;;;;5009743;28;20038;-48
2022/03/30 08:02:34;;;;;;;3.25;1.88;;;3.80;99.90;;;;;;5010920;28;20030;-49
2022/03/30 08:04:59;;;;;;;3.70;2.17;;;3.90;99.90;;;;;;5010224;28;20141;-52
2022/03/30 08:07:30;;;;;;;6.53;2.17;;;3.90;99.90;;;;;;5011519;28;20057;-50
2022/03/30 08:09:56;;;;;;;7.60;2.58;;;4.00;99.90;;;;;;5009373;28;20034;-49
2022/03/30 08:12:22;;;;;;;5.88;2.30;;;4.00;99.90;;;;;;5010800;28;20026;-50
2022/03/30 08:14:48;;;;;;;5.93;1.80;;;4.00;99.90;;;;;;4995458;28;20022;-51
2022/03/30 08:17:14;;;;;;;2.33;2.08;;;4.00;99.90;;;;;;4991809;28;20095;-50
2022/03/30 08:19:41;;;;;;;3.58;1.65;;;4.00;99.90;;;;;;4992370;28;20105;-50
2022/03/30 08:25:07;;;;;;;4.15;2.17;;;4.10;99.90;;;;;;4990582;28;20562;-50
2022/03/30 08:27:34;;;;;;;3.83;2.47;;;4.20;99.90;;;;;;4991907;28;20042;-51
2022/03/30 08:30:00;;;;;;;8.13;2.60;;;4.20;99.90;;;;;;4991119;28;20030;-53
2022/03/30 08:32:26;;;;;;;4.18;2.53;;;4.20;99.90;;;;;;4990276;28;20046;-52
2022/03/30 08:34:54;;;;;;;4.20;2.30;;;4.20;99.90;;;;;;4989925;28;20058;-48
2022/03/30 08:37:21;;;;;;;4.55;2.30;;;4.20;99.90;;;;;;4991231;28;20038;-50
2022/03/30 08:39:48;;;;;;;3.72;2.35;;;4.20;99.90;;;;;;4991103;28;20420;-50
2022/03/30 08:42:16;;;;;;;4.47;2.42;;;4.20;99.90;;;;;;4990834;28;20037;-50
2022/03/30 08:44:43;;;;;;;3.15;2.28;;;4.20;99.90;;;;;;4990663;28;20054;-49
2022/03/30 08:47:11;;;;;;;2.88;2.13;;;4.10;99.90;;;;;;4990800;28;20076;-50
2022/03/30 08:49:37;;;;;;;8.70;3.03;;;4.20;99.90;;;;;;4990718;28;20019;-51
2022/03/30 08:52:05;;;;;;;3.67;2.30;;;4.10;99.90;;;;;;4990892;28;20033;-50
2022/03/30 08:54:31;;;;;;;4.05;2.58;;;4.00;99.90;;;;;;4990330;28;20031;-50
2022/03/30 08:56:57;;;;;;;3.42;2.10;;;4.00;99.90;;;;;;4990981;28;20044;-51
2022/03/30 08:59:23;;;;;;;3.50;2.22;;;4.00;99.90;;;;;;4990503;28;20027;-51
2022/03/30 09:01:52;;;;;;;5.78;2.65;;;4.10;99.90;;;;;;4990870;28;20054;-53
2022/03/30 09:04:19;;;;;;;3.47;2.10;;;4.30;99.90;;;;;;4990590;28;20030;-50
2022/03/30 09:06:52;;;;;;;6.53;1.85;;;4.40;99.90;;;;;;4990825;28;20037;-50
2022/03/30 09:09:47;;;;;;;4.07;2.17;;;4.60;99.90;;;;;;4990457;28;20105;-52
2022/03/30 09:12:12;;;;;;;4.05;1.98;;;4.60;99.90;;;;;;4993357;28;20128;-48
2022/03/30 09:14:39;;;;;;;4.32;1.92;;;4.70;99.90;;;;;;4990250;28;20169;-52
2022/03/30 09:17:07;;;;;;;4.43;1.73;;;4.80;99.90;;;;;;4990443;28;20113;-51
2022/03/30 09:19:39;;;;;;;3.35;1.60;;;4.90;99.90;;;;;;4989966;28;20026;-49
2022/03/30 09:22:06;;;;;;;2.50;1.50;;;4.90;99.90;;;;;;4991771;28;20042;-50
2022/03/30 09:24:38;;;;;;;2.17;1.17;;;5.00;99.90;;;;;;4995616;28;20038;-50
2022/03/30 09:27:05;;;;;;;2.15;1.38;;;4.90;99.90;;;;;;4990212;28;20113;-51
2022/03/30 09:29:33;;;;;;;2.08;1.27;;;4.90;99.90;;;;;;5005477;28;20062;-50
2022/03/30 09:32:06;;;;;;;3.13;1.70;;;4.80;99.90;;;;;;5000749;28;20041;-50
2022/03/30 09:34:45;;;;;;;1.73;1.48;;;4.70;99.90;;;;;;4998325;28;20041;-51
2022/03/30 09:37:11;;;;;;;3.35;1.10;;;4.90;99.90;;;;;;4990019;28;20477;-52
2022/03/30 09:39:38;;;;;;;2.28;1.25;;;4.80;99.90;;;;;;4989634;28;20137;-50
2022/03/30 09:42:05;;;;;;;2.40;1.15;;;4.90;99.90;;;;;;5021215;28;20642;-50
2022/03/30 09:44:51;;;;;;;2.85;1.35;;;4.80;99.90;;;;;;4990753;28;20109;-50
2022/03/30 09:47:18;;;;;;;2.45;1.27;;;4.80;99.90;;;;;;4989792;28;20034;-49
2022/03/30 09:49:48;;;;;;;2.17;1.13;;;4.90;99.90;;;;;;4989901;28;20037;-49
2022/03/30 09:52:24;;;;;;;4.28;1.67;;;4.80;99.90;;;;;;4989637;28;20481;-51
2022/03/30 09:54:50;;;;;;;1.60;1.17;;;4.70;99.90;;;;;;4999913;28;20107;-48
2022/03/30 09:57:39;;;;;;;1.65;1.20;;;4.70;99.90;;;;;;4990891;28;20169;-49
2022/03/30 10:00:17;;;;;;;3.40;1.13;;;4.70;99.90;;;;;;4998814;28;20049;-50
2022/03/30 10:02:51;;;;;;;1.48;1.20;;;4.90;99.90;;;;;;5013656;28;20345;-51
2022/03/30 10:05:19;;;;;;;1.58;1.08;;;5.10;99.90;;;;;;5013920;28;20037;-50
2022/03/30 10:07:45;;;;;;;4.05;1.30;;;5.20;99.90;;;;;;5013198;28;20046;-48
2022/03/30 10:10:14;;;;;;;2.97;1.38;;;5.40;99.90;;;;;;4998159;28;20117;-49
2022/03/30 10:12:40;;;;;;;5.70;1.55;;;5.50;99.90;;;;;;5008131;28;20019;-51
2022/03/30 10:15:07;;;;;;;2.15;1.20;;;5.40;99.90;;;;;;4993747;28;20025;-52
2022/03/30 10:17:34;;;;;;;4.03;1.05;;;5.50;99.90;;;;;;4993626;28;20489;-49
2022/03/30 10:20:01;;;;;;;5.00;1.60;;;5.60;99.90;;;;;;5010085;28;20041;-50
2022/03/30 10:23:05;;;;;;;2.17;1.15;;;5.70;99.90;;;;;;5012780;28;20113;-51
2022/03/30 10:26:14;;;;;;;2.67;0.85;;;5.70;99.90;;;;;;5013222;28;20097;-50
2022/03/30 10:28:40;;;;;;;3.97;0.88;;;5.70;99.90;;;;;;4963400;28;20469;-50
2022/03/30 10:31:06;;;;;;;3.17;0.70;;;5.70;99.90;;;;;;4979994;28;20025;-48
2022/03/30 10:33:40;;;;;;;1.33;0.82;;;5.80;99.90;;;;;;5012422;28;20071;-49
2022/03/30 10:36:57;;;;;;;2.55;1.20;;;5.90;99.90;;;;;;5011535;28;20036;-49
2022/03/30 10:39:26;;;;;;;1.85;1.00;;;6.00;99.90;;;;;;4990865;28;20121;-47
2022/03/30 10:42:08;;;;;;;2.60;0.93;;;6.00;99.90;;;;;;5009782;28;20030;-52
2022/03/30 10:44:57;;;;;;;3.47;1.40;;;5.90;99.90;;;;;;5012914;28;20040;-49
2022/03/30 10:47:26;;;;;;;2.13;1.00;;;5.90;99.90;;;;;;4993363;28;20054;-50
2022/03/30 10:50:03;;;;;;;2.05;1.67;;;5.90;99.90;;;;;;4993703;28;20493;-52
2022/03/30 10:52:37;;;;;;;1.85;1.67;;;6.10;99.90;;;;;;4973627;28;20101;-50
2022/03/30 10:55:12;;;;;;;1.73;1.00;;;6.30;99.90;;;;;;5003820;28;20026;-48
2022/03/30 10:58:01;;;;;;;1.92;1.08;;;6.50;99.90;;;;;;4999225;28;20404;-52
2022/03/30 11:00:36;;;;;;;1.08;0.90;;;6.70;99.90;;;;;;4973582;28;20501;-48
2022/03/30 11:03:20;;;;;;;3.85;1.90;;;6.80;99.90;;;;;;4973149;28;20023;-48
2022/03/30 11:06:02;;;;;;;4.38;1.73;;;6.90;99.90;;;;;;4973516;28;20103;-50
2022/03/30 11:08:34;;;;;;;2.22;1.00;;;6.80;99.90;;;;;;4973349;28;20026;-52
2022/03/30 11:11:03;;;;;;;8.75;2.33;;;6.90;99.90;;;;;;5003873;28;20019;-51
2022/03/30 11:13:29;;;;;;;5.00;1.50;;;6.80;99.90;;;;;;5003522;28;20049;-51
2022/03/30 11:15:59;;;;;;;1.27;1.05;;;6.70;99.90;;;;;;4972620;28;20520;-50
2022/03/30 11:18:25;;;;;;;3.50;1.65;;;6.80;99.90;;;;;;4973310;28;20027;-50
2022/03/30 11:21:12;;;;;;;2.85;1.23;;;6.90;99.90;;;;;;4973508;28;20565;-51
2022/03/30 11:24:10;;;;;;;2.53;1.10;;;7.00;99.90;;;;;;4996806;23;20093;-51
2022/03/30 11:26:50;;;;;;;2.17;1.30;;;6.80;99.90;;;;;;4972636;28;20074;-47
2022/03/30 11:29:41;;;;;;;5.57;1.30;;;7.00;99.90;;;;;;4973018;28;20489;-54
2022/03/30 11:32:18;;;;;;;2.83;1.00;;;7.10;99.90;;;;;;4972887;28;20022;-52
2022/03/30 11:34:48;;;;;;;3.05;1.30;;;7.20;99.90;;;;;;4972747;28;20030;-50
2022/03/30 11:37:13;;;;;;;2.53;1.48;;;7.30;99.90;;;;;;4964102;28;20024;-49
2022/03/30 11:39:41;;;;;;;3.35;1.17;;;7.10;99.90;;;;;;4953559;29;20514;-51
2022/03/30 11:42:07;;;;;;;2.33;1.23;;;7.20;99.90;;;;;;4954328;28;20038;-51
2022/03/30 11:47:24;;;;;;;1.88;1.10;;;7.50;99.90;;;;;;4954068;28;20104;-52
2022/03/30 11:49:55;;;;;;;1.60;1.10;;;7.70;99.90;;;;;;4953215;28;20031;-48
2022/03/30 11:52:22;;;;;;;3.42;1.42;;;7.80;99.90;;;;;;4953273;28;20457;-50
2022/03/30 11:54:53;;;;;;;3.13;1.40;;;7.80;99.90;;;;;;4953531;28;20043;-48
2022/03/30 11:57:20;;;;;;;1.70;0.88;;;7.90;99.90;;;;;;4953187;28;20039;-51
2022/03/30 11:59:57;;;;;;;5.05;1.27;;;8.00;99.90;;;;;;4953395;29;20181;-52
2022/03/30 12:02:27;;;;;;;1.55;1.08;;;7.90;99.90;;;;;;4953279;28;20039;-48
2022/03/30 12:04:53;;;;;;;3.30;1.27;;;7.90;99.90;;;;;;4962771;28;20034;-51
2022/03/30 12:07:20;;;;;;;1.58;0.80;;;7.80;99.90;;;;;;4972343;28;20046;-50
2022/03/30 12:09:53;;;;;;;2.53;1.45;;;7.80;99.90;;;;;;4972124;28;20022;-50
2022/03/30 12:12:45;;;;;;;0.82;0.82;;;7.90;99.90;;;;;;4972218;28;20046;-50
2022/03/30 12:15:19;;;;;;;1.30;1.20;;;8.00;99.90;;;;;;4969873;28;20039;-47
2022/03/30 12:17:57;;;;;;;4.00;1.00;;;8.00;99.90;;;;;;4967574;28;20026;-50
2022/03/30 12:20:22;;;;;;;2.42;1.00;;;7.90;99.90;;;;;;4971854;28;20149;-49
2022/03/30 12:23:03;;;;;;;1.88;0.95;;;7.90;99.90;;;;;;4969865;28;20126;-51
2022/03/30 12:25:31;;;;;;;4.53;1.23;;;8.10;99.90;;;;;;4971753;28;20166;-49
2022/03/30 12:27:58;;;;;;;2.35;1.45;;;8.20;99.90;;;;;;4966879;28;20062;-51
2022/03/30 12:30:24;;;;;;;3.90;1.45;;;8.30;99.90;;;;;;4956745;28;20034;-51
2022/03/30 12:32:50;;;;;;;1.33;1.08;;;8.30;99.90;;;;;;4952186;28;20522;-49
2022/03/30 12:35:17;;;;;;;2.20;1.33;;;8.40;99.90;;;;;;4952100;29;20023;-49
2022/03/30 12:37:46;;;;;;;2.50;1.40;;;8.40;99.90;;;;;;4952588;28;20134;-49
2022/03/30 12:40:19;;;;;;;2.70;0.93;;;8.40;99.90;;;;;;4952814;28;20023;-49
2022/03/30 12:42:45;;;;;;;3.58;1.42;;;8.30;99.90;;;;;;4952492;28;20035;-51
2022/03/30 12:45:14;;;;;;;2.38;1.15;;;8.30;99.90;;;;;;4952572;29;20490;-52
2022/03/30 12:47:55;;;;;;;2.17;1.10;;;8.30;99.90;;;;;;4967789;28;20031;-51
2022/03/30 12:50:27;;;;;;;1.83;1.02;;;8.40;99.90;;;;;;4952142;28;20490;-50
2022/03/30 12:52:54;;;;;;;1.45;1.30;;;8.50;99.90;;;;;;4970301;28;20023;-50
2022/03/30 12:55:32;;;;;;;3.10;1.15;;;8.70;99.90;;;;;;4971357;28;20054;-52
2022/03/30 12:58:16;;;;;;;1.80;1.30;;;8.60;99.90;;;;;;4971254;28;20031;-53
2022/03/30 13:00:43;;;;;;;2.58;1.48;;;8.70;99.90;;;;;;4970382;28;20532;-50
2022/03/30 13:03:14;;;;;;;2.20;1.08;;;8.70;99.90;;;;;;4970734;28;20023;-49
2022/03/30 13:05:45;;;;;;;1.58;1.13;;;8.70;99.90;;;;;;4970976;28;20425;-49
2022/03/30 13:08:19;;;;;;;1.52;0.95;;;8.70;99.90;;;;;;4970956;28;20019;-49
2022/03/30 13:10:51;;;;;;;1.48;1.20;;;8.80;99.90;;;;;;4970179;28;20024;-49
2022/03/30 13:13:19;;;;;;;1.95;1.17;;;8.80;99.90;;;;;;4970488;28;20357;-48
2022/03/30 13:15:44;;;;;;;5.63;1.70;;;8.80;99.90;;;;;;4970273;28;20023;-48
2022/03/30 13:18:18;;;;;;;2.95;1.40;;;8.90;99.90;;;;;;4970825;28;20523;-50
2022/03/30 13:20:54;;;;;;;3.58;1.10;;;8.80;99.90;;;;;;4970048;28;20101;-48